sensor_id;sensor_type;location;lat;lon;timestamp;temperature;humidity
10512;DHT22;5304;48.604;2.096;2024-03-02T05:16:56;5.10;99.90
10512;DHT22;5304;48.604;2.096;2024-03-02T05:19:41;5.10;99.90
10512;DHT22;5304;48.604;2.096;2024-03-02T05:22:25;5.10;99.90
10512;DHT22;5304;48.604;2.096;2024-03-02T05:25:10;5.10;99.90
10512;DHT22;5304;48.604;2.096;2024-03-02T05:27:55;5.10;99.90
10512;DHT22;5304;48.604;2.096;2024-03-02T05:30:42;5.10;99.90
10512;DHT22;5304;48.604;2.096;2024-03-02T05:33:27;5.20;99.90
10512;DHT22;5304;48.604;2.096;2024-03-02T05:36:13;5.20;99.90
10512;DHT22;5304;48.604;2.096;2024-03-02T05:38:57;5.20;99.90
10512;DHT22;5304;48.604;2.096;2024-03-02T05:41:41;5.20;99.90
10512;DHT22;5304;48.604;2.096;2024-03-02T05:44:25;5.20;99.90
10512;DHT22;5304;48.604;2.096;2024-03-02T05:47:09;5.20;99.90
10512;DHT22;5304;48.604;2.096;2024-03-02T05:49:53;5.20;99.90
10512;DHT22;5304;48.604;2.096;2024-03-02T05:52:38;5.30;99.90
10512;DHT22;5304;48.604;2.096;2024-03-02T05:55:23;5.30;99.90
10512;DHT22;5304;48.604;2.096;2024-03-02T05:58:08;5.40;99.90
10512;DHT22;5304;48.604;2.096;2024-03-02T06:01:25;5.40;99.90
10512;DHT22;5304;48.604;2.096;2024-03-02T06:04:13;5.50;99.90
10512;DHT22;5304;48.604;2.096;2024-03-02T06:06:57;5.50;99.90
10512;DHT22;5304;48.604;2.096;2024-03-02T06:09:41;5.60;99.90
10512;DHT22;5304;48.604;2.096;2024-03-02T06:12:26;5.60;99.90
10512;DHT22;5304;48.604;2.096;2024-03-02T06:15:10;5.70;99.90
10512;DHT22;5304;48.604;2.096;2024-03-02T06:17:55;5.70;99.90
10512;DHT22;5304;48.604;2.096;2024-03-02T06:20:39;5.70;99.90
10512;DHT22;5304;48.604;2.096;2024-03-02T06:23:24;5.70;99.90
10512;DHT22;5304;48.604;2.096;2024-03-02T06:26:08;5.70;99.90
10512;DHT22;5304;48.604;2.096;2024-03-02T06:28:52;5.80;99.90
10512;DHT22;5304;48.604;2.096;2024-03-02T06:31:37;5.80;99.90
10512;DHT22;5304;48.604;2.096;2024-03-02T06:34:21;5.80;99.90
10512;DHT22;5304;48.604;2.096;2024-03-02T06:37:06;5.90;99.90
10512;DHT22;5304;48.604;2.096;2024-03-02T06:39:50;5.90;99.90
10512;DHT22;5304;48.604;2.096;2024-03-02T06:42:35;5.90;99.90
10512;DHT22;5304;48.604;2.096;2024-03-02T06:45:19;5.90;99.90
10512;DHT22;5304;48.604;2.096;2024-03-02T06:48:04;6.00;99.90
10512;DHT22;5304;48.604;2.096;2024-03-02T06:50:48;6.10;99.90
10512;DHT22;5304;48.604;2.096;2024-03-02T06:53:33;6.10;99.90
10512;DHT22;5304;48.604;2.096;2024-03-02T06:56:18;6.10;99.90
10512;DHT22;5304;48.604;2.096;2024-03-02T06:59:02;6.20;99.90
10512;DHT22;5304;48.604;2.096;2024-03-02T07:01:46;6.20;99.90
10512;DHT22;5304;48.604;2.096;2024-03-02T07:04:30;6.20;99.90
10512;DHT22;5304;48.604;2.096;2024-03-02T07:07:14;6.10;99.90
10512;DHT22;5304;48.604;2.096;2024-03-02T07:09:59;6.20;99.90
10512;DHT22;5304;48.604;2.096;2024-03-02T07:12:43;6.30;99.90
10512;DHT22;5304;48.604;2.096;2024-03-02T07:15:29;6.30;99.90
10512;DHT22;5304;48.604;2.096;2024-03-02T07:18:32;6.40;99.90
10512;DHT22;5304;48.604;2.096;2024-03-02T07:21:24;6.50;99.90
10512;DHT22;5304;48.604;2.096;2024-03-02T07:24:08;6.50;99.90
10512;DHT22;5304;48.604;2.096;2024-03-02T07:26:57;6.60;99.90
10512;DHT22;5304;48.604;2.096;2024-03-02T07:29:41;6.60;99.90
10512;DHT22;5304;48.604;2.096;2024-03-02T07:32:25;6.60;99.90
10512;DHT22;5304;48.604;2.096;2024-03-02T07:35:10;6.60;99.90
10512;DHT22;5304;48.604;2.096;2024-03-02T07:37:54;6.60;99.90
10512;DHT22;5304;48.604;2.096;2024-03-02T07:40:39;6.60;99.90
10512;DHT22;5304;48.604;2.096;2024-03-02T07:43:24;6.80;99.90
10512;DHT22;5304;48.604;2.096;2024-03-02T07:46:09;6.80;99.90
10512;DHT22;5304;48.604;2.096;2024-03-02T07:48:53;6.90;99.90
10512;DHT22;5304;48.604;2.096;2024-03-02T07:51:38;6.80;99.90
10512;DHT22;5304;48.604;2.096;2024-03-02T07:54:22;6.90;99.90
10512;DHT22;5304;48.604;2.096;2024-03-02T07:57:06;6.90;99.90
10512;DHT22;5304;48.604;2.096;2024-03-02T07:59:50;6.90;99.90
10512;DHT22;5304;48.604;2.096;2024-03-02T08:02:35;6.90;99.90
10512;DHT22;5304;48.604;2.096;2024-03-02T08:05:19;6.90;99.90
10512;DHT22;5304;48.604;2.096;2024-03-02T08:08:04;6.90;99.90
10512;DHT22;5304;48.604;2.096;2024-03-02T08:10:49;6.90;99.90
10512;DHT22;5304;48.604;2.096;2024-03-02T08:13:33;6.80;99.90
10512;DHT22;5304;48.604;2.096;2024-03-02T08:16:18;6.80;99.90
10512;DHT22;5304;48.604;2.096;2024-03-02T08:19:05;6.80;99.90
10512;DHT22;5304;48.604;2.096;2024-03-02T08:21:49;6.80;99.90
10512;DHT22;5304;48.604;2.096;2024-03-02T08:24:34;6.80;99.90
10512;DHT22;5304;48.604;2.096;2024-03-02T08:27:18;6.90;99.90
10512;DHT22;5304;48.604;2.096;2024-03-02T08:30:02;6.90;99.90
10512;DHT22;5304;48.604;2.096;2024-03-02T08:32:51;6.90;99.90
10512;DHT22;5304;48.604;2.096;2024-03-02T08:35:35;6.90;99.90
10512;DHT22;5304;48.604;2.096;2024-03-02T08:38:20;6.80;99.90
10512;DHT22;5304;48.604;2.096;2024-03-02T08:41:04;6.80;99.90
10512;DHT22;5304;48.604;2.096;2024-03-02T08:43:49;6.80;99.90
10512;DHT22;5304;48.604;2.096;2024-03-02T08:46:33;6.80;99.90
10512;DHT22;5304;48.604;2.096;2024-03-02T08:49:17;6.70;99.90
10512;DHT22;5304;48.604;2.096;2024-03-02T08:52:01;6.70;99.90
10512;DHT22;5304;48.604;2.096;2024-03-02T08:54:46;6.70;99.90
10512;DHT22;5304;48.604;2.096;2024-03-02T08:57:31;6.70;99.90
10512;DHT22;5304;48.604;2.096;2024-03-02T09:00:15;6.70;99.90
10512;DHT22;5304;48.604;2.096;2024-03-02T09:03:01;6.70;99.90
10512;DHT22;5304;48.604;2.096;2024-03-02T09:05:45;6.80;99.90
10512;DHT22;5304;48.604;2.096;2024-03-02T09:08:29;6.80;99.90
10512;DHT22;5304;48.604;2.096;2024-03-02T09:11:13;6.70;99.90
10512;DHT22;5304;48.604;2.096;2024-03-02T09:13:58;6.70;99.90
10512;DHT22;5304;48.604;2.096;2024-03-02T09:16:42;6.80;99.90
10512;DHT22;5304;48.604;2.096;2024-03-02T09:19:28;6.80;99.90
10512;DHT22;5304;48.604;2.096;2024-03-02T09:22:13;6.90;99.90
10512;DHT22;5304;48.604;2.096;2024-03-02T09:24:57;7.00;99.90
10512;DHT22;5304;48.604;2.096;2024-03-02T09:27:42;7.00;99.90
10512;DHT22;5304;48.604;2.096;2024-03-02T09:30:26;7.10;99.90
10512;DHT22;5304;48.604;2.096;2024-03-02T09:33:10;7.10;99.90
10512;DHT22;5304;48.604;2.096;2024-03-02T09:35:54;7.20;99.90
10512;DHT22;5304;48.604;2.096;2024-03-02T09:38:38;7.20;99.90
10512;DHT22;5304;48.604;2.096;2024-03-02T09:41:23;7.30;99.90
10512;DHT22;5304;48.604;2.096;2024-03-02T09:44:07;7.30;99.90
10512;DHT22;5304;48.604;2.096;2024-03-02T09:46:52;7.40;99.90
10512;DHT22;5304;48.604;2.096;2024-03-02T09:49:36;7.40;99.90
10512;DHT22;5304;48.604;2.096;2024-03-02T09:52:22;7.50;99.90
10512;DHT22;5304;48.604;2.096;2024-03-02T09:55:06;7.60;99.90
10512;DHT22;5304;48.604;2.096;2024-03-02T09:57:51;7.70;99.90
10512;DHT22;5304;48.604;2.096;2024-03-02T10:00:35;7.70;99.90
10512;DHT22;5304;48.604;2.096;2024-03-02T10:03:20;7.70;99.90
10512;DHT22;5304;48.604;2.096;2024-03-02T10:09:03;7.60;99.90
10512;DHT22;5304;48.604;2.096;2024-03-02T10:11:47;7.60;99.90
10512;DHT22;5304;48.604;2.096;2024-03-02T10:14:33;7.70;99.90
10512;DHT22;5304;48.604;2.096;2024-03-02T10:17:17;7.60;99.90
10512;DHT22;5304;48.604;2.096;2024-03-02T10:20:21;7.70;99.90
10512;DHT22;5304;48.604;2.096;2024-03-02T10:23:14;7.80;99.90
10512;DHT22;5304;48.604;2.096;2024-03-02T10:25:58;7.80;99.90
10512;DHT22;5304;48.604;2.096;2024-03-02T10:28:46;7.80;99.90
10512;DHT22;5304;48.604;2.096;2024-03-02T10:31:32;7.90;99.90
10512;DHT22;5304;48.604;2.096;2024-03-02T10:34:17;7.90;99.90
10512;DHT22;5304;48.604;2.096;2024-03-02T10:37:02;7.80;99.90
10512;DHT22;5304;48.604;2.096;2024-03-02T10:39:47;7.80;99.90
10512;DHT22;5304;48.604;2.096;2024-03-02T10:42:31;7.90;99.90
10512;DHT22;5304;48.604;2.096;2024-03-02T10:45:16;7.80;99.90
10512;DHT22;5304;48.604;2.096;2024-03-02T10:48:02;7.90;99.90
10512;DHT22;5304;48.604;2.096;2024-03-02T10:50:46;7.90;99.90
10512;DHT22;5304;48.604;2.096;2024-03-02T10:53:30;7.90;99.90
10512;DHT22;5304;48.604;2.096;2024-03-02T10:56:22;7.80;99.90
10512;DHT22;5304;48.604;2.096;2024-03-02T11:02:04;7.70;99.90
10512;DHT22;5304;48.604;2.096;2024-03-02T11:04:55;7.90;99.90
10512;DHT22;5304;48.604;2.096;2024-03-02T11:07:39;7.90;99.90
10512;DHT22;5304;48.604;2.096;2024-03-02T11:10:24;8.10;99.90
10512;DHT22;5304;48.604;2.096;2024-03-02T11:13:10;8.20;99.90
10512;DHT22;5304;48.604;2.096;2024-03-02T11:15:58;8.30;99.90
10512;DHT22;5304;48.604;2.096;2024-03-02T11:18:43;8.20;99.90
10512;DHT22;5304;48.604;2.096;2024-03-02T11:21:30;8.20;99.90
10512;DHT22;5304;48.604;2.096;2024-03-02T11:33:23;8.20;99.90
10512;DHT22;5304;48.604;2.096;2024-03-02T11:36:09;8.20;99.90
10512;DHT22;5304;48.604;2.096;2024-03-02T11:38:53;8.30;99.90
10512;DHT22;5304;48.604;2.096;2024-03-02T11:41:37;8.40;99.90
10512;DHT22;5304;48.604;2.096;2024-03-02T11:44:21;8.60;99.90
10512;DHT22;5304;48.604;2.096;2024-03-02T11:47:07;8.50;99.90
10512;DHT22;5304;48.604;2.096;2024-03-02T11:49:52;8.60;99.90
10512;DHT22;5304;48.604;2.096;2024-03-02T11:52:38;8.50;99.90
10512;DHT22;5304;48.604;2.096;2024-03-02T11:55:25;8.50;99.90
10512;DHT22;5304;48.604;2.096;2024-03-02T11:58:13;8.60;99.90
10512;DHT22;5304;48.604;2.096;2024-03-02T12:00:57;8.50;99.90
10512;DHT22;5304;48.604;2.096;2024-03-02T12:03:42;8.40;99.90
10512;DHT22;5304;48.604;2.096;2024-03-02T12:06:26;8.30;99.90
10512;DHT22;5304;48.604;2.096;2024-03-02T12:09:12;8.30;99.90
10512;DHT22;5304;48.604;2.096;2024-03-02T12:12:07;8.20;99.90
10512;DHT22;5304;48.604;2.096;2024-03-02T12:14:53;8.20;99.90
10512;DHT22;5304;48.604;2.096;2024-03-02T12:17:39;8.20;99.90
10512;DHT22;5304;48.604;2.096;2024-03-02T12:20:25;8.20;99.90
10512;DHT22;5304;48.604;2.096;2024-03-02T12:23:09;8.30;99.90
10512;DHT22;5304;48.604;2.096;2024-03-02T12:25:54;8.20;99.90
10512;DHT22;5304;48.604;2.096;2024-03-02T12:28:38;8.20;99.90
10512;DHT22;5304;48.604;2.096;2024-03-02T12:31:22;8.30;99.90
10512;DHT22;5304;48.604;2.096;2024-03-02T12:34:08;8.40;99.90
10512;DHT22;5304;48.604;2.096;2024-03-02T12:36:52;8.60;99.90
10512;DHT22;5304;48.604;2.096;2024-03-02T12:39:37;8.40;99.90
10512;DHT22;5304;48.604;2.096;2024-03-02T12:42:21;8.40;99.90
10512;DHT22;5304;48.604;2.096;2024-03-02T12:45:06;8.50;99.90
10512;DHT22;5304;48.604;2.096;2024-03-02T12:47:51;8.40;99.90
10512;DHT22;5304;48.604;2.096;2024-03-02T12:50:37;8.50;99.90
10512;DHT22;5304;48.604;2.096;2024-03-02T12:53:22;8.50;99.90
10512;DHT22;5304;48.604;2.096;2024-03-02T12:56:08;8.60;99.90
10512;DHT22;5304;48.604;2.096;2024-03-02T12:58:55;8.50;99.90
10512;DHT22;5304;48.604;2.096;2024-03-02T13:01:52;8.50;99.90
10512;DHT22;5304;48.604;2.096;2024-03-02T13:04:37;8.60;99.90
10512;DHT22;5304;48.604;2.096;2024-03-02T13:07:23;8.60;99.90
10512;DHT22;5304;48.604;2.096;2024-03-02T13:10:08;8.50;99.90
10512;DHT22;5304;48.604;2.096;2024-03-02T13:12:52;8.50;99.90
10512;DHT22;5304;48.604;2.096;2024-03-02T13:15:38;8.30;99.90
10512;DHT22;5304;48.604;2.096;2024-03-02T13:18:22;8.40;99.90
10512;DHT22;5304;48.604;2.096;2024-03-02T13:21:08;8.40;99.90
10512;DHT22;5304;48.604;2.096;2024-03-02T13:23:52;8.40;99.90
10512;DHT22;5304;48.604;2.096;2024-03-02T13:26:36;8.40;99.90
10512;DHT22;5304;48.604;2.096;2024-03-02T13:29:21;8.40;99.90
10512;DHT22;5304;48.604;2.096;2024-03-02T13:32:05;8.40;99.90
10512;DHT22;5304;48.604;2.096;2024-03-02T13:34:50;8.30;99.90
10512;DHT22;5304;48.604;2.096;2024-03-02T13:37:34;8.20;99.90
10512;DHT22;5304;48.604;2.096;2024-03-02T13:40:20;8.20;99.90
10512;DHT22;5304;48.604;2.096;2024-03-02T13:43:04;8.20;99.90
10512;DHT22;5304;48.604;2.096;2024-03-02T13:45:49;8.20;99.90
10512;DHT22;5304;48.604;2.096;2024-03-02T13:48:33;8.20;99.90
10512;DHT22;5304;48.604;2.096;2024-03-02T13:51:17;8.10;99.90
10512;DHT22;5304;48.604;2.096;2024-03-02T13:54:02;8.10;99.90
10512;DHT22;5304;48.604;2.096;2024-03-02T13:56:47;8.10;99.90
10512;DHT22;5304;48.604;2.096;2024-03-02T13:59:32;8.10;99.90
10512;DHT22;5304;48.604;2.096;2024-03-02T14:02:16;8.20;99.90
10512;DHT22;5304;48.604;2.096;2024-03-02T14:05:01;8.20;99.90
10512;DHT22;5304;48.604;2.096;2024-03-02T14:07:46;8.20;99.90
10512;DHT22;5304;48.604;2.096;2024-03-02T14:10:30;8.30;99.90
10512;DHT22;5304;48.604;2.096;2024-03-02T14:13:14;8.30;99.90
10512;DHT22;5304;48.604;2.096;2024-03-02T14:15:59;8.30;99.90
10512;DHT22;5304;48.604;2.096;2024-03-02T14:18:44;8.40;99.90
10512;DHT22;5304;48.604;2.096;2024-03-02T14:21:30;8.30;99.90
10512;DHT22;5304;48.604;2.096;2024-03-02T14:24:15;8.40;99.90
10512;DHT22;5304;48.604;2.096;2024-03-02T14:26:59;8.40;99.90
10512;DHT22;5304;48.604;2.096;2024-03-02T14:29:46;8.50;99.90
10512;DHT22;5304;48.604;2.096;2024-03-02T14:32:30;8.60;99.90
10512;DHT22;5304;48.604;2.096;2024-03-02T14:35:14;8.60;99.90
10512;DHT22;5304;48.604;2.096;2024-03-02T14:37:59;8.60;99.90
10512;DHT22;5304;48.604;2.096;2024-03-02T14:40:43;8.60;99.90
10512;DHT22;5304;48.604;2.096;2024-03-02T14:43:28;8.50;99.90
10512;DHT22;5304;48.604;2.096;2024-03-02T14:46:12;8.60;99.90
10512;DHT22;5304;48.604;2.096;2024-03-02T14:48:57;8.70;99.90
10512;DHT22;5304;48.604;2.096;2024-03-02T14:51:42;8.70;99.90
10512;DHT22;5304;48.604;2.096;2024-03-02T14:54:27;8.70;99.90
10512;DHT22;5304;48.604;2.096;2024-03-02T14:57:11;8.80;99.90
10512;DHT22;5304;48.604;2.096;2024-03-02T14:59:56;8.80;99.90
10512;DHT22;5304;48.604;2.096;2024-03-02T15:02:40;8.80;99.90
10512;DHT22;5304;48.604;2.096;2024-03-02T15:05:25;8.90;99.90
10512;DHT22;5304;48.604;2.096;2024-03-02T15:08:10;8.90;99.90
10512;DHT22;5304;48.604;2.096;2024-03-02T15:10:55;8.90;99.90
10512;DHT22;5304;48.604;2.096;2024-03-02T15:13:40;8.80;99.90
10512;DHT22;5304;48.604;2.096;2024-03-02T15:16:24;9.00;99.90
10512;DHT22;5304;48.604;2.096;2024-03-02T15:19:08;8.90;99.90
10512;DHT22;5304;48.604;2.096;2024-03-02T15:21:53;8.70;99.90
10512;DHT22;5304;48.604;2.096;2024-03-02T15:24:37;8.60;99.90
10512;DHT22;5304;48.604;2.096;2024-03-02T15:27:22;8.50;99.90
10512;DHT22;5304;48.604;2.096;2024-03-02T15:30:07;8.50;99.90
10512;DHT22;5304;48.604;2.096;2024-03-02T15:32:51;8.50;99.90
10512;DHT22;5304;48.604;2.096;2024-03-02T15:35:36;8.40;99.90
10512;DHT22;5304;48.604;2.096;2024-03-02T15:38:20;8.60;99.90
10512;DHT22;5304;48.604;2.096;2024-03-02T15:41:04;8.60;99.90
10512;DHT22;5304;48.604;2.096;2024-03-02T15:43:48;8.60;99.90
10512;DHT22;5304;48.604;2.096;2024-03-02T15:46:33;8.30;99.90
10512;DHT22;5304;48.604;2.096;2024-03-02T15:49:18;8.30;99.90
10512;DHT22;5304;48.604;2.096;2024-03-02T15:52:02;8.20;99.90
10512;DHT22;5304;48.604;2.096;2024-03-02T15:54:48;8.10;99.90
10512;DHT22;5304;48.604;2.096;2024-03-02T15:57:34;8.00;99.90
10512;DHT22;5304;48.604;2.096;2024-03-02T16:00:19;7.80;99.90
10512;DHT22;5304;48.604;2.096;2024-03-02T16:03:03;7.80;99.90
10512;DHT22;5304;48.604;2.096;2024-03-02T16:05:48;7.70;99.90
10512;DHT22;5304;48.604;2.096;2024-03-02T16:08:32;7.70;99.90
10512;DHT22;5304;48.604;2.096;2024-03-02T16:11:17;7.70;99.90
10512;DHT22;5304;48.604;2.096;2024-03-02T16:14:01;7.70;99.90
10512;DHT22;5304;48.604;2.096;2024-03-02T16:16:45;7.60;99.90
10512;DHT22;5304;48.604;2.096;2024-03-02T16:19:29;7.60;99.90
10512;DHT22;5304;48.604;2.096;2024-03-02T16:22:14;7.50;99.90
10512;DHT22;5304;48.604;2.096;2024-03-02T16:24:58;7.50;99.90
10512;DHT22;5304;48.604;2.096;2024-03-02T16:27:42;7.50;99.90
10512;DHT22;5304;48.604;2.096;2024-03-02T16:30:26;7.50;99.90
10512;DHT22;5304;48.604;2.096;2024-03-02T16:33:10;7.40;99.90
10512;DHT22;5304;48.604;2.096;2024-03-02T16:35:55;7.40;99.90
10512;DHT22;5304;48.604;2.096;2024-03-02T16:38:39;7.30;99.90
10512;DHT22;5304;48.604;2.096;2024-03-02T16:41:24;7.40;99.90
10512;DHT22;5304;48.604;2.096;2024-03-02T16:44:13;7.50;99.90
10512;DHT22;5304;48.604;2.096;2024-03-02T16:46:58;7.40;99.90
10512;DHT22;5304;48.604;2.096;2024-03-02T16:49:45;7.40;99.90
10512;DHT22;5304;48.604;2.096;2024-03-02T16:52:29;7.40;99.90
10512;DHT22;5304;48.604;2.096;2024-03-02T16:55:13;7.30;99.90
10512;DHT22;5304;48.604;2.096;2024-03-02T16:57:58;7.30;99.90
10512;DHT22;5304;48.604;2.096;2024-03-02T17:00:43;7.30;99.90
10512;DHT22;5304;48.604;2.096;2024-03-02T17:03:29;7.20;99.90
10512;DHT22;5304;48.604;2.096;2024-03-02T17:06:14;7.20;99.90
10512;DHT22;5304;48.604;2.096;2024-03-02T17:08:59;7.10;99.90
10512;DHT22;5304;48.604;2.096;2024-03-02T17:11:43;7.10;99.90
10512;DHT22;5304;48.604;2.096;2024-03-02T17:14:27;7.10;99.90
10512;DHT22;5304;48.604;2.096;2024-03-02T17:17:11;7.10;99.90
10512;DHT22;5304;48.604;2.096;2024-03-02T17:19:57;7.10;99.90
10512;DHT22;5304;48.604;2.096;2024-03-02T17:22:41;7.10;99.90
10512;DHT22;5304;48.604;2.096;2024-03-02T17:25:26;7.20;99.90
10512;DHT22;5304;48.604;2.096;2024-03-02T17:28:26;7.10;99.90
10512;DHT22;5304;48.604;2.096;2024-03-02T17:31:10;7.10;99.90
10512;DHT22;5304;48.604;2.096;2024-03-02T17:33:54;7.10;99.90
10512;DHT22;5304;48.604;2.096;2024-03-02T17:36:39;7.00;99.90
10512;DHT22;5304;48.604;2.096;2024-03-02T17:39:23;7.00;99.90
10512;DHT22;5304;48.604;2.096;2024-03-02T17:42:07;7.00;99.90
10512;DHT22;5304;48.604;2.096;2024-03-02T17:44:52;7.00;99.90
10512;DHT22;5304;48.604;2.096;2024-03-02T17:47:36;7.00;99.90
10512;DHT22;5304;48.604;2.096;2024-03-02T17:50:20;6.90;99.90
10512;DHT22;5304;48.604;2.096;2024-03-02T17:53:04;6.90;99.90
10512;DHT22;5304;48.604;2.096;2024-03-02T17:55:49;6.90;99.90
10512;DHT22;5304;48.604;2.096;2024-03-02T17:58:34;6.90;99.90
10512;DHT22;5304;48.604;2.096;2024-03-02T18:01:18;6.90;99.90
10512;DHT22;5304;48.604;2.096;2024-03-02T18:04:02;6.90;99.90
10512;DHT22;5304;48.604;2.096;2024-03-02T18:06:47;6.80;99.90
10512;DHT22;5304;48.604;2.096;2024-03-02T18:09:32;6.80;99.90
10512;DHT22;5304;48.604;2.096;2024-03-02T18:12:16;6.80;99.90
10512;DHT22;5304;48.604;2.096;2024-03-02T18:15:00;6.70;99.90
10512;DHT22;5304;48.604;2.096;2024-03-02T18:17:46;6.70;99.90
10512;DHT22;5304;48.604;2.096;2024-03-02T18:20:30;6.60;99.90
10512;DHT22;5304;48.604;2.096;2024-03-02T18:23:14;6.60;99.90
10512;DHT22;5304;48.604;2.096;2024-03-02T18:25:58;6.60;99.90
10512;DHT22;5304;48.604;2.096;2024-03-02T18:28:43;6.60;99.90
10512;DHT22;5304;48.604;2.096;2024-03-02T18:31:27;6.70;99.90
10512;DHT22;5304;48.604;2.096;2024-03-02T18:34:11;6.60;99.90
10512;DHT22;5304;48.604;2.096;2024-03-02T18:36:56;6.60;99.90
10512;DHT22;5304;48.604;2.096;2024-03-02T18:39:40;6.60;99.90
10512;DHT22;5304;48.604;2.096;2024-03-02T18:42:25;6.50;99.90
10512;DHT22;5304;48.604;2.096;2024-03-02T18:45:10;6.60;99.90
10512;DHT22;5304;48.604;2.096;2024-03-02T18:47:54;6.60;99.90
10512;DHT22;5304;48.604;2.096;2024-03-02T18:50:39;6.70;99.90
10512;DHT22;5304;48.604;2.096;2024-03-02T18:53:23;6.70;99.90
10512;DHT22;5304;48.604;2.096;2024-03-02T18:56:07;6.60;99.90
10512;DHT22;5304;48.604;2.096;2024-03-02T18:58:52;6.70;99.90
10512;DHT22;5304;48.604;2.096;2024-03-02T19:01:36;6.60;99.90
10512;DHT22;5304;48.604;2.096;2024-03-02T19:04:20;6.60;99.90
10512;DHT22;5304;48.604;2.096;2024-03-02T19:07:05;6.60;99.90
10512;DHT22;5304;48.604;2.096;2024-03-02T19:09:49;6.50;99.90
10512;DHT22;5304;48.604;2.096;2024-03-02T19:12:33;6.50;99.90
10512;DHT22;5304;48.604;2.096;2024-03-02T19:15:17;6.60;99.90
10512;DHT22;5304;48.604;2.096;2024-03-02T19:18:02;6.60;99.90
10512;DHT22;5304;48.604;2.096;2024-03-02T19:20:47;6.50;99.90
10512;DHT22;5304;48.604;2.096;2024-03-02T19:23:32;6.40;99.90
10512;DHT22;5304;48.604;2.096;2024-03-02T19:26:16;6.40;99.90
10512;DHT22;5304;48.604;2.096;2024-03-02T19:29:02;6.40;99.90
10512;DHT22;5304;48.604;2.096;2024-03-02T19:31:46;6.40;99.90
10512;DHT22;5304;48.604;2.096;2024-03-02T19:34:30;6.50;99.90
10512;DHT22;5304;48.604;2.096;2024-03-02T19:37:14;6.40;99.90
10512;DHT22;5304;48.604;2.096;2024-03-02T19:39:58;6.40;99.90
10512;DHT22;5304;48.604;2.096;2024-03-02T19:42:43;6.40;99.90
10512;DHT22;5304;48.604;2.096;2024-03-02T19:45:30;6.40;99.90
10512;DHT22;5304;48.604;2.096;2024-03-02T19:48:14;6.40;99.90
10512;DHT22;5304;48.604;2.096;2024-03-02T19:51:01;6.40;99.90
10512;DHT22;5304;48.604;2.096;2024-03-02T19:53:45;6.30;99.90
10512;DHT22;5304;48.604;2.096;2024-03-02T19:56:29;6.30;99.90
10512;DHT22;5304;48.604;2.096;2024-03-02T19:59:14;6.30;99.90
10512;DHT22;5304;48.604;2.096;2024-03-02T20:01:58;6.30;99.90
10512;DHT22;5304;48.604;2.096;2024-03-02T20:04:43;6.40;99.90
10512;DHT22;5304;48.604;2.096;2024-03-02T20:07:28;6.50;99.90
10512;DHT22;5304;48.604;2.096;2024-03-02T20:10:12;6.40;99.90
10512;DHT22;5304;48.604;2.096;2024-03-02T20:12:57;6.60;99.90
10512;DHT22;5304;48.604;2.096;2024-03-02T20:15:41;6.50;99.90
10512;DHT22;5304;48.604;2.096;2024-03-02T20:18:25;6.60;99.90
10512;DHT22;5304;48.604;2.096;2024-03-02T20:21:10;6.60;99.90
10512;DHT22;5304;48.604;2.096;2024-03-02T20:23:55;6.50;99.90
10512;DHT22;5304;48.604;2.096;2024-03-02T20:26:39;6.60;99.90
10512;DHT22;5304;48.604;2.096;2024-03-02T20:29:23;6.60;99.90
10512;DHT22;5304;48.604;2.096;2024-03-02T20:32:08;6.50;99.90
10512;DHT22;5304;48.604;2.096;2024-03-02T20:34:52;6.50;99.90
10512;DHT22;5304;48.604;2.096;2024-03-02T20:37:36;6.50;99.90
10512;DHT22;5304;48.604;2.096;2024-03-02T20:40:21;6.50;99.90
10512;DHT22;5304;48.604;2.096;2024-03-02T20:43:06;6.60;99.90
10512;DHT22;5304;48.604;2.096;2024-03-02T20:45:50;6.50;99.90
10512;DHT22;5304;48.604;2.096;2024-03-02T20:48:34;6.50;99.90
10512;DHT22;5304;48.604;2.096;2024-03-02T20:51:18;6.50;99.90
10512;DHT22;5304;48.604;2.096;2024-03-02T20:54:03;6.40;99.90
10512;DHT22;5304;48.604;2.096;2024-03-02T20:56:49;6.40;99.90
10512;DHT22;5304;48.604;2.096;2024-03-02T20:59:35;6.40;99.90
10512;DHT22;5304;48.604;2.096;2024-03-02T21:02:20;6.40;99.90
10512;DHT22;5304;48.604;2.096;2024-03-02T21:05:04;6.40;99.90
10512;DHT22;5304;48.604;2.096;2024-03-02T21:07:49;6.40;99.90
10512;DHT22;5304;48.604;2.096;2024-03-02T21:10:33;6.40;99.90
10512;DHT22;5304;48.604;2.096;2024-03-02T21:13:18;6.40;99.90
10512;DHT22;5304;48.604;2.096;2024-03-02T21:16:03;6.40;99.90
10512;DHT22;5304;48.604;2.096;2024-03-02T21:18:47;6.40;99.90
10512;DHT22;5304;48.604;2.096;2024-03-02T21:21:33;6.40;99.90
